Time;durP1;ratioP1;P1;durP2;ratioP2;P2;SDS_P1;SDS_P2;PMS_P1;PMS_P2;Temp;Humidity;BMP_temperature;BMP_pressure;BME280_temperature;BME280_humidity;BME280_pressure;Samples;Min_cycle;Max_cycle;Signal;HPM_P1;HPM_P2
2022/04/12 00:00:23;;;;;;;40.88;37.63;;;;;;;3.99;100.00;101561.28;5094161;28;20036;-80
2022/04/12 00:02:52;;;;;;;42.10;39.05;;;;;;;4.07;100.00;101563.22;5081945;28;20508;-79
2022/04/12 00:05:18;;;;;;;37.25;34.50;;;;;;;3.82;100.00;101559.41;5086303;28;20056;-79
2022/04/12 00:07:45;;;;;;;37.03;34.08;;;;;;;3.75;100.00;101555.66;5083686;28;20117;-80
2022/04/12 00:10:13;;;;;;;36.17;33.53;;;;;;;3.77;100.00;101554.53;5086221;28;20492;-79
2022/04/12 00:12:40;;;;;;;37.05;34.55;;;;;;;3.82;100.00;101549.72;5085489;28;20093;-79
2022/04/12 00:15:09;;;;;;;110.45;80.30;;;;;;;3.75;100.00;101550.41;5087803;28;20108;-78
2022/04/12 00:20:24;;;;;;;116.18;85.82;;;;;;;3.94;100.00;101554.81;5085566;28;20046;-78
2022/04/12 00:22:51;;;;;;;110.35;82.30;;;;;;;3.77;100.00;101557.19;5093562;28;20050;-79
2022/04/12 00:25:19;;;;;;;103.20;76.93;;;;;;;3.22;100.00;101555.13;5088832;28;20044;-80
2022/04/12 00:27:45;;;;;;;117.45;105.45;;;;;;;3.44;100.00;101553.19;5086354;28;20052;-80
2022/04/12 00:30:13;;;;;;;92.85;83.03;;;;;;;3.56;100.00;101557.34;5086777;28;20109;-80
2022/04/12 00:32:40;;;;;;;63.63;58.72;;;;;;;3.72;100.00;101559.38;5089129;28;20131;-80
2022/04/12 00:35:08;;;;;;;51.40;47.15;;;;;;;3.10;100.00;101553.59;5083159;28;20139;-79
2022/04/12 00:37:36;;;;;;;56.35;51.67;;;;;;;3.51;100.00;101556.09;5093338;28;20048;-79
2022/04/12 00:40:05;;;;;;;45.17;41.25;;;;;;;3.52;100.00;101560.41;5092476;28;20097;-79
2022/04/12 00:42:31;;;;;;;35.70;32.85;;;;;;;3.54;100.00;101561.91;5086744;28;20083;-79
2022/04/12 00:44:59;;;;;;;33.80;31.42;;;;;;;3.55;100.00;101562.75;5083774;28;20102;-80
2022/04/12 00:47:25;;;;;;;37.85;34.70;;;;;;;3.25;100.00;101551.41;5083310;28;20484;-79
2022/04/12 00:49:52;;;;;;;38.58;35.45;;;;;;;3.33;100.00;101567.31;5087553;28;20082;-79
2022/04/12 00:52:19;;;;;;;36.20;33.30;;;;;;;3.30;100.00;101566.72;5091544;28;20048;-79
2022/04/12 00:54:49;;;;;;;38.50;35.38;;;;;;;3.49;100.00;101568.56;5088260;28;20417;-80
2022/04/12 00:57:16;;;;;;;59.67;55.88;;;;;;;3.65;100.00;101567.00;5088503;28;20131;-79
2022/04/12 00:59:46;;;;;;;60.08;56.42;;;;;;;3.71;100.00;101573.50;5091318;28;20486;-80
2022/04/12 01:02:13;;;;;;;58.53;54.95;;;;;;;3.46;100.00;101568.84;5083525;28;20052;-78
2022/04/12 01:04:40;;;;;;;55.67;52.47;;;;;;;3.56;100.00;101564.41;5088284;28;20481;-78
2022/04/12 01:07:07;;;;;;;45.35;42.55;;;;;;;3.72;100.00;101569.91;5086702;28;20047;-79
2022/04/12 01:09:34;;;;;;;44.17;41.33;;;;;;;3.47;100.00;101567.84;5078625;28;20052;-79
2022/04/12 01:12:09;;;;;;;37.33;34.97;;;;;;;3.68;100.00;101571.97;5086414;28;20040;-78
2022/04/12 01:14:36;;;;;;;41.00;38.40;;;;;;;3.55;100.00;101563.56;5086850;28;20135;-78
2022/04/12 01:17:05;;;;;;;36.35;34.05;;;;;;;3.75;100.00;101568.78;5078918;28;20078;-78
2022/04/12 01:19:32;;;;;;;33.55;31.45;;;;;;;3.59;100.00;101569.38;5082150;28;20519;-80
2022/04/12 01:22:03;;;;;;;35.05;32.92;;;;;;;3.54;100.00;101554.03;5091542;28;20051;-79
2022/04/12 01:24:32;;;;;;;52.50;49.50;;;;;;;3.04;100.00;101562.03;5080755;28;20036;-79
2022/04/12 01:26:59;;;;;;;53.10;49.58;;;;;;;3.13;100.00;101553.34;5086544;28;20131;-78
2022/04/12 01:29:26;;;;;;;54.08;50.28;;;;;;;3.01;100.00;101557.03;5089999;28;20040;-77
2022/04/12 01:31:54;;;;;;;53.85;50.55;;;;;;;2.74;100.00;101562.94;5087808;28;20502;-80
2022/04/12 01:34:20;;;;;;;57.03;53.50;;;;;;;2.67;100.00;101565.25;5084393;28;20043;-78
2022/04/12 01:36:47;;;;;;;53.47;49.78;;;;;;;2.59;100.00;101564.25;5088165;28;20044;-79
2022/04/12 01:39:14;;;;;;;47.35;43.75;;;;;;;2.41;100.00;101571.94;5085948;28;20131;-79
2022/04/12 01:41:42;;;;;;;47.83;44.53;;;;;;;2.57;100.00;101566.19;5087631;28;20051;-78
2022/04/12 01:44:09;;;;;;;53.47;50.03;;;;;;;2.90;100.00;101557.16;5079480;28;20470;-79
2022/04/12 01:46:36;;;;;;;36.17;33.67;;;;;;;3.03;100.00;101560.38;5087504;28;20558;-79
2022/04/12 01:49:02;;;;;;;36.13;33.55;;;;;;;2.91;100.00;101558.84;5086153;28;20094;-78
2022/04/12 01:51:29;;;;;;;34.95;32.22;;;;;;;2.55;100.00;101552.38;5074641;28;20041;-78
2022/04/12 01:53:56;;;;;;;35.00;32.30;;;;;;;2.61;100.00;101560.56;5080999;28;20036;-79
2022/04/12 01:56:24;;;;;;;33.00;30.75;;;;;;;2.36;100.00;101561.00;5079808;28;20049;-80
2022/04/12 01:58:52;;;;;;;38.40;35.72;;;;;;;2.77;100.00;101560.03;5007932;28;20527;-81
2022/04/12 02:01:19;;;;;;;35.20;32.42;;;;;;;2.48;100.00;101566.03;5079990;28;20104;-81
2022/04/12 02:03:46;;;;;;;34.13;31.73;;;;;;;2.48;100.00;101560.78;5081365;28;20569;-79
2022/04/12 02:06:14;;;;;;;41.00;37.58;;;;;;;2.98;100.00;101565.19;5077331;28;20549;-78
2022/04/12 02:08:43;;;;;;;37.70;35.03;;;;;;;2.86;100.00;101563.66;5088407;28;20055;-79
2022/04/12 02:11:11;;;;;;;34.33;32.00;;;;;;;2.95;100.00;101568.09;5086273;28;20105;-78
2022/04/12 02:13:38;;;;;;;37.03;34.53;;;;;;;2.88;100.00;101565.19;5087350;28;20478;-80
2022/04/12 02:16:06;;;;;;;36.33;33.97;;;;;;;2.88;100.00;101564.34;5075725;28;20048;-79
2022/04/12 02:18:33;;;;;;;35.75;33.08;;;;;;;2.59;100.00;101569.50;5080287;28;20098;-78
2022/04/12 02:21:00;;;;;;;32.72;30.42;;;;;;;2.52;100.00;101563.97;5080296;28;20044;-80
2022/04/12 02:23:28;;;;;;;41.30;37.83;;;;;;;2.49;100.00;101569.47;5081113;28;20124;-80
2022/04/12 02:25:55;;;;;;;42.15;38.85;;;;;;;2.47;100.00;101566.16;5085490;28;20074;-82
2022/04/12 02:28:21;;;;;;;40.55;36.92;;;;;;;2.33;100.00;101559.50;5078490;28;20116;-80
2022/04/12 02:30:49;;;;;;;38.00;34.78;;;;;;;2.08;100.00;101562.53;5081381;28;20048;-79
2022/04/12 02:33:17;;;;;;;40.45;37.25;;;;;;;2.23;100.00;101558.59;5078851;28;20125;-81
2022/04/12 02:35:43;;;;;;;39.80;36.28;;;;;;;1.89;100.00;101569.31;5089136;28;20112;-81
2022/04/12 02:38:13;;;;;;;37.47;34.55;;;;;;;1.70;100.00;101566.56;5089787;28;21107;-79
2022/04/12 02:40:41;;;;;;;47.75;43.72;;;;;;;1.65;100.00;101566.13;5079354;28;20127;-79
2022/04/12 02:43:08;;;;;;;50.50;45.35;;;;;;;1.64;100.00;101565.28;5085752;28;20472;-79
2022/04/12 02:45:35;;;;;;;53.63;48.33;;;;;;;1.77;100.00;101567.72;5082907;28;20466;-80
2022/04/12 02:48:03;;;;;;;51.53;46.35;;;;;;;1.46;100.00;101567.63;5081608;28;20538;-81
2022/04/12 02:50:31;;;;;;;52.85;47.55;;;;;;;1.74;100.00;101567.97;5089737;28;20048;-80
2022/04/12 02:52:58;;;;;;;55.28;49.58;;;;;;;1.87;100.00;101563.34;5089723;28;20106;-82
2022/04/12 02:55:25;;;;;;;51.60;46.20;;;;;;;1.63;100.00;101560.16;5084350;28;20048;-81
2022/04/12 02:57:53;;;;;;;54.80;48.88;;;;;;;1.62;100.00;101569.00;5085602;28;20102;-81
2022/04/12 03:00:20;;;;;;;51.83;46.22;;;;;;;1.51;100.00;101573.34;5087219;28;20047;-81
2022/04/12 03:02:47;;;;;;;49.38;44.33;;;;;;;1.49;100.00;101579.66;5090560;28;20048;-80
2022/04/12 03:05:14;;;;;;;53.22;47.58;;;;;;;1.63;100.00;101570.63;5085044;28;20105;-81
2022/04/12 03:07:43;;;;;;;56.70;48.47;;;;;;;1.23;100.00;101566.06;5086669;28;20110;-79
2022/04/12 03:10:10;;;;;;;57.78;48.30;;;;;;;1.82;100.00;101563.75;5086100;28;20051;-81
2022/04/12 03:12:37;;;;;;;56.60;50.60;;;;;;;1.72;100.00;101572.50;5083570;28;20048;-80
2022/04/12 03:15:06;;;;;;;59.15;53.63;;;;;;;1.88;100.00;101578.13;5087850;28;20048;-80
2022/04/12 03:17:32;;;;;;;57.67;51.78;;;;;;;2.08;100.00;101579.06;5081976;28;20105;-81
2022/04/12 03:20:00;;;;;;;56.45;51.10;;;;;;;2.35;100.00;101575.06;5079701;28;20509;-80
2022/04/12 03:22:27;;;;;;;60.55;55.35;;;;;;;1.72;100.00;101583.81;5090455;28;20044;-81
2022/04/12 03:24:56;;;;;;;65.00;58.78;;;;;;;1.71;100.00;101584.78;5081577;28;20561;-78
2022/04/12 03:27:23;;;;;;;70.40;63.75;;;;;;;1.66;100.00;101588.72;5085155;28;20066;-78
2022/04/12 03:29:50;;;;;;;73.13;66.50;;;;;;;1.46;100.00;101585.13;5083230;28;20084;-80
2022/04/12 03:32:17;;;;;;;69.20;62.75;;;;;;;1.66;100.00;101581.69;5088145;28;20117;-80
2022/04/12 03:34:46;;;;;;;61.95;55.80;;;;;;;1.38;100.00;101586.56;5091119;28;20397;-79
2022/04/12 03:37:14;;;;;;;61.88;55.67;;;;;;;1.59;100.00;101596.25;5085745;28;20135;-79
2022/04/12 03:39:42;;;;;;;53.13;48.42;;;;;;;1.67;100.00;101593.03;5087572;28;20040;-79
2022/04/12 03:42:11;;;;;;;59.47;54.30;;;;;;;1.42;100.00;101594.19;5083498;28;20069;-80
2022/04/12 03:44:38;;;;;;;61.22;55.90;;;;;;;1.44;100.00;101597.50;5088804;28;20119;-80
2022/04/12 03:47:05;;;;;;;63.17;58.00;;;;;;;1.43;100.00;101594.06;5083718;28;20099;-80
2022/04/12 03:49:33;;;;;;;60.28;54.58;;;;;;;1.51;100.00;101607.38;5087814;28;20113;-79
2022/04/12 03:52:00;;;;;;;59.28;53.22;;;;;;;1.63;100.00;101596.81;5091459;28;20128;-81
2022/04/12 03:54:27;;;;;;;65.78;59.63;;;;;;;1.75;100.00;101596.63;5088716;28;20101;-80
2022/04/12 03:56:54;;;;;;;61.63;55.40;;;;;;;1.39;100.00;101595.25;5087039;28;20048;-80
2022/04/12 03:59:22;;;;;;;68.85;61.97;;;;;;;1.56;100.00;101607.81;5088913;28;20073;-80
2022/04/12 04:01:49;;;;;;;59.75;53.67;;;;;;;1.40;100.00;101593.50;5093638;28;20489;-80
2022/04/12 04:04:16;;;;;;;61.20;54.95;;;;;;;1.37;100.00;101602.41;5088899;28;20472;-80
2022/04/12 04:06:43;;;;;;;62.83;56.17;;;;;;;1.68;100.00;101607.78;5089415;28;20408;-80
2022/04/12 04:09:11;;;;;;;66.80;60.55;;;;;;;1.89;100.00;101610.41;5090957;28;20052;-79
2022/04/12 04:11:40;;;;;;;57.22;52.22;;;;;;;1.91;100.00;101601.47;5090836;28;20101;-78
2022/04/12 04:14:09;;;;;;;53.33;48.63;;;;;;;2.06;100.00;101612.47;5091054;28;20044;-80
2022/04/12 04:16:39;;;;;;;42.22;38.85;;;;;;;2.33;100.00;101608.44;5081722;28;20047;-79
2022/04/12 04:19:08;;;;;;;42.40;39.30;;;;;;;2.18;100.00;101611.44;5088620;28;20134;-79
2022/04/12 04:21:35;;;;;;;46.65;43.58;;;;;;;2.43;100.00;101615.41;5086377;28;20052;-79
2022/04/12 04:24:03;;;;;;;43.28;40.30;;;;;;;3.14;100.00;101610.09;5086965;28;20044;-79
2022/04/12 04:26:31;;;;;;;48.03;44.75;;;;;;;3.37;100.00;101612.50;5085442;28;20053;-80
2022/04/12 04:29:00;;;;;;;41.83;38.65;;;;;;;3.08;100.00;101609.81;5086233;28;20513;-79
2022/04/12 04:31:27;;;;;;;42.83;40.00;;;;;;;3.08;100.00;101617.69;5084246;28;20143;-80
2022/04/12 04:33:55;;;;;;;47.78;44.38;;;;;;;3.17;100.00;101612.47;5082053;28;20044;-80
2022/04/12 04:36:22;;;;;;;45.35;42.45;;;;;;;3.42;100.00;101623.44;5084796;28;20048;-80
2022/04/12 04:38:49;;;;;;;44.95;41.85;;;;;;;3.47;100.00;101628.25;5090457;28;20048;-79
2022/04/12 04:41:16;;;;;;;46.08;42.90;;;;;;;3.63;100.00;101618.88;5090705;28;20115;-79
2022/04/12 04:43:45;;;;;;;46.83;43.72;;;;;;;3.81;100.00;101623.41;5085950;28;20496;-82
2022/04/12 04:46:13;;;;;;;45.55;42.38;;;;;;;3.88;100.00;101627.16;5091030;28;20040;-81
2022/04/12 04:48:41;;;;;;;41.88;39.20;;;;;;;4.01;100.00;101621.63;5089655;28;20048;-80
2022/04/12 04:51:09;;;;;;;40.60;37.72;;;;;;;3.97;100.00;101631.59;5090367;28;20040;-78
2022/04/12 04:53:37;;;;;;;40.70;38.08;;;;;;;4.07;100.00;101636.81;5088196;28;20048;-81
2022/04/12 04:56:06;;;;;;;35.45;32.80;;;;;;;4.24;100.00;101635.28;5091899;28;20416;-80
2022/04/12 04:58:34;;;;;;;38.22;35.42;;;;;;;4.40;100.00;101630.25;5085094;28;20059;-80
2022/04/12 05:01:01;;;;;;;42.05;39.28;;;;;;;4.33;100.00;101644.94;5087979;28;20131;-80
2022/04/12 05:03:28;;;;;;;38.03;35.58;;;;;;;4.39;100.00;101636.47;5086608;28;20053;-79
2022/04/12 05:05:55;;;;;;;34.42;31.85;;;;;;;4.39;100.00;101641.75;5091648;28;20127;-79
2022/04/12 05:08:24;;;;;;;34.50;32.08;;;;;;;4.47;100.00;101641.84;5085702;28;20044;-78
2022/04/12 05:10:51;;;;;;;34.28;31.77;;;;;;;4.67;100.00;101642.63;5077664;28;20159;-79
2022/04/12 05:13:18;;;;;;;33.45;31.05;;;;;;;4.77;100.00;101648.66;5085452;28;20123;-80
2022/04/12 05:15:46;;;;;;;34.00;31.42;;;;;;;4.84;100.00;101651.53;5077997;28;20040;-80
2022/04/12 05:18:13;;;;;;;31.70;29.50;;;;;;;5.07;100.00;101651.16;5082943;28;20040;-80
2022/04/12 05:20:40;;;;;;;32.75;30.55;;;;;;;5.25;100.00;101649.38;5090468;28;20164;-79
2022/04/12 05:23:07;;;;;;;33.25;30.80;;;;;;;5.45;100.00;101644.84;5091920;28;20040;-78
2022/04/12 05:25:35;;;;;;;31.80;29.65;;;;;;;5.47;100.00;101641.03;5026163;28;20057;-80
2022/04/12 05:28:01;;;;;;;31.25;29.25;;;;;;;5.51;100.00;101638.97;5082473;28;20052;-80
2022/04/12 05:30:29;;;;;;;32.88;30.65;;;;;;;5.53;100.00;101644.06;5084591;28;20097;-79
2022/04/12 05:32:56;;;;;;;32.67;30.67;;;;;;;5.37;100.00;101639.47;5078901;28;20132;-79
2022/04/12 05:35:23;;;;;;;33.58;31.42;;;;;;;6.14;100.00;101638.00;5089203;28;20109;-80
2022/04/12 05:37:52;;;;;;;31.65;29.40;;;;;;;5.54;100.00;101632.53;5090510;28;20423;-79
2022/04/12 05:40:20;;;;;;;31.75;29.65;;;;;;;5.68;100.00;101638.09;5083825;28;20072;-79
2022/04/12 05:42:51;;;;;;;31.30;29.23;;;;;;;5.78;100.00;101635.41;5086771;28;20048;-78
2022/04/12 05:45:18;;;;;;;34.83;32.67;;;;;;;5.75;100.00;101641.00;5088211;28;20052;-79
2022/04/12 05:47:49;;;;;;;31.35;29.48;;;;;;;6.08;100.00;101638.63;5077994;28;20044;-78
2022/04/12 05:50:18;;;;;;;30.33;28.25;;;;;;;6.02;100.00;101640.09;5088136;28;20051;-79
2022/04/12 05:52:46;;;;;;;30.17;28.27;;;;;;;6.33;100.00;101640.47;5090376;28;20094;-78
2022/04/12 05:55:15;;;;;;;31.02;29.08;;;;;;;6.21;100.00;101636.44;5082023;28;20048;-78
2022/04/12 05:57:51;;;;;;;33.33;30.95;;;;;;;6.18;100.00;101637.56;5081330;28;20044;-78
2022/04/12 06:00:19;;;;;;;31.10;29.20;;;;;;;6.34;100.00;101638.66;5084972;28;20048;-79
2022/04/12 06:02:46;;;;;;;29.45;27.73;;;;;;;6.92;100.00;101637.13;5084992;28;20040;-79
2022/04/12 06:05:14;;;;;;;32.78;30.77;;;;;;;6.16;100.00;101634.22;5086058;28;20119;-78
2022/04/12 06:07:41;;;;;;;30.40;28.45;;;;;;;6.43;100.00;101649.09;5085181;28;20478;-79
2022/04/12 06:10:09;;;;;;;33.65;31.55;;;;;;;6.94;100.00;101643.91;5083699;28;20684;-78
2022/04/12 06:12:36;;;;;;;31.88;29.80;;;;;;;6.47;100.00;101644.31;5080090;28;20522;-78
2022/04/12 06:15:05;;;;;;;30.63;28.85;;;;;;;6.22;100.00;101643.34;5079104;28;20106;-79
2022/04/12 06:17:33;;;;;;;32.42;30.05;;;;;;;6.57;100.00;101646.88;5089735;28;20494;-78
2022/04/12 06:20:01;;;;;;;32.47;30.02;;;;;;;6.35;100.00;101656.94;5082277;28;20044;-78
2022/04/12 06:22:29;;;;;;;30.40;28.55;;;;;;;6.56;100.00;101661.03;5081977;28;20126;-78
2022/04/12 06:24:55;;;;;;;32.42;30.67;;;;;;;6.98;100.00;101657.59;5086494;28;20052;-78
2022/04/12 06:27:30;;;;;;;36.80;34.63;;;;;;;7.03;100.00;101664.06;5083058;28;20474;-80
2022/04/12 06:29:57;;;;;;;34.58;32.58;;;;;;;6.61;100.00;101661.41;5079280;28;20128;-80
2022/04/12 06:32:26;;;;;;;36.70;34.35;;;;;;;6.74;100.00;101661.78;5088826;28;20474;-79
2022/04/12 06:34:54;;;;;;;37.50;35.22;;;;;;;6.47;100.00;101667.25;5079805;28;20113;-80
2022/04/12 06:37:24;;;;;;;36.42;34.17;;;;;;;6.60;100.00;101676.41;5079910;28;20090;-80
2022/04/12 06:39:50;;;;;;;36.50;34.20;;;;;;;6.46;100.00;101676.16;5088143;28;20500;-79
2022/04/12 06:42:17;;;;;;;32.85;30.85;;;;;;;6.75;100.00;101674.03;5087006;28;20084;-79
2022/04/12 06:44:44;;;;;;;40.85;37.35;;;;;;;6.65;100.00;101678.56;5085063;28;20055;-79
2022/04/12 06:47:11;;;;;;;32.30;30.17;;;;;;;7.52;100.00;101673.94;5084745;28;20044;-78
2022/04/12 06:49:39;;;;;;;32.15;30.15;;;;;;;7.62;100.00;101677.25;5082171;28;20045;-78
2022/04/12 06:52:06;;;;;;;31.70;29.80;;;;;;;7.28;100.00;101678.19;5079614;28;20078;-79
2022/04/12 06:54:33;;;;;;;29.92;28.20;;;;;;;7.71;100.00;101680.75;5087426;28;20051;-80
2022/04/12 06:56:59;;;;;;;33.83;31.45;;;;;;;7.36;100.00;101681.84;5082048;28;20121;-78
2022/04/12 06:59:26;;;;;;;32.97;30.77;;;;;;;7.61;100.00;101678.25;5082893;28;20051;-78
2022/04/12 07:01:53;;;;;;;33.30;31.27;;;;;;;7.40;100.00;101689.28;5076748;28;20048;-79
2022/04/12 07:04:21;;;;;;;32.80;30.70;;;;;;;7.68;100.00;101671.31;5084314;28;20105;-79
2022/04/12 07:06:49;;;;;;;35.00;32.90;;;;;;;7.96;100.00;101673.69;5082726;28;20043;-79
2022/04/12 07:09:18;;;;;;;35.80;33.60;;;;;;;8.10;100.00;101686.22;5080971;28;20501;-78
2022/04/12 07:11:45;;;;;;;40.25;37.90;;;;;;;8.40;100.00;101684.75;5084391;28;20044;-79
2022/04/12 07:14:12;;;;;;;33.85;31.75;;;;;;;8.40;100.00;101679.44;5087688;28;20064;-77
2022/04/12 07:16:39;;;;;;;30.65;28.95;;;;;;;8.44;100.00;101680.78;5084128;28;20239;-79
2022/04/12 07:19:06;;;;;;;33.67;31.45;;;;;;;8.40;100.00;101682.09;5088050;28;20483;-79
2022/04/12 07:21:33;;;;;;;33.05;31.15;;;;;;;8.40;100.00;101683.91;5091761;28;20113;-78
2022/04/12 07:24:03;;;;;;;33.22;31.30;;;;;;;9.05;100.00;101686.41;5090726;28;20644;-78
2022/04/12 07:26:30;;;;;;;32.63;30.58;;;;;;;8.57;100.00;101682.09;5085381;28;20044;-77
2022/04/12 07:28:58;;;;;;;34.60;32.47;;;;;;;9.51;100.00;101677.72;5087033;28;20113;-79
2022/04/12 07:31:25;;;;;;;35.20;33.30;;;;;;;9.63;100.00;101677.13;5087076;28;20040;-78
2022/04/12 07:33:52;;;;;;;32.50;30.60;;;;;;;8.88;100.00;101676.84;5087464;28;20048;-77
2022/04/12 07:36:19;;;;;;;30.35;28.75;;;;;;;9.81;100.00;101671.53;5086345;28;20640;-78
2022/04/12 07:38:48;;;;;;;33.70;31.70;;;;;;;9.44;100.00;101666.13;5088902;28;20040;-78
2022/04/12 07:41:16;;;;;;;33.10;31.20;;;;;;;10.07;100.00;101679.09;5086297;28;20044;-78
2022/04/12 07:43:45;;;;;;;32.47;30.40;;;;;;;10.92;100.00;101672.63;5090302;28;20044;-79
2022/04/12 07:46:12;;;;;;;37.72;35.63;;;;;;;10.33;100.00;101675.25;5084915;28;20091;-76
2022/04/12 07:48:39;;;;;;;41.67;39.38;;;;;;;10.16;100.00;101666.59;5085324;28;20081;-77
2022/04/12 07:51:05;;;;;;;39.50;37.42;;;;;;;10.18;100.00;101671.72;5088368;28;20052;-79
2022/04/12 07:53:32;;;;;;;39.00;36.90;;;;;;;10.54;100.00;101675.38;5086943;28;20507;-78
2022/04/12 07:55:59;;;;;;;35.80;33.95;;;;;;;10.27;100.00;101668.84;5088984;28;20044;-77
2022/04/12 07:58:27;;;;;;;37.63;35.35;;;;;;;9.01;100.00;101674.47;5086429;28;20409;-78
2022/04/12 08:00:54;;;;;;;39.08;36.75;;;;;;;9.50;100.00;101670.75;5091897;28;20044;-79
2022/04/12 08:03:21;;;;;;;40.47;38.22;;;;;;;9.75;100.00;101664.28;5090655;28;20044;-79
2022/04/12 08:05:48;;;;;;;37.33;35.13;;;;;;;9.72;100.00;101663.81;5081838;28;20127;-79
2022/04/12 08:08:15;;;;;;;36.40;34.22;;;;;;;10.46;100.00;101667.47;5090795;28;20111;-78
2022/04/12 08:10:42;;;;;;;40.35;37.95;;;;;;;10.23;100.00;101667.53;5082749;28;20055;-79
2022/04/12 08:13:08;;;;;;;43.67;41.47;;;;;;;10.46;100.00;101667.47;5083023;28;20109;-79
2022/04/12 08:15:37;;;;;;;43.13;40.53;;;;;;;10.76;100.00;101670.16;5085862;28;20048;-79
2022/04/12 08:18:03;;;;;;;40.20;37.97;;;;;;;9.40;100.00;101677.09;5084186;28;20051;-77
2022/04/12 08:20:30;;;;;;;38.63;36.50;;;;;;;10.32;100.00;101670.97;5081538;28;20511;-79
2022/04/12 08:22:57;;;;;;;39.05;36.78;;;;;;;10.06;100.00;101664.19;5091308;28;20454;-78
2022/04/12 08:25:24;;;;;;;36.63;34.42;;;;;;;10.70;100.00;101670.88;5088184;28;20141;-78
2022/04/12 08:27:51;;;;;;;45.17;42.72;;;;;;;10.00;100.00;101661.44;5091501;28;20048;-79
2022/04/12 08:30:18;;;;;;;42.25;39.88;;;;;;;9.98;100.00;101658.13;5091235;28;20051;-78
2022/04/12 08:32:46;;;;;;;40.10;37.70;;;;;;;10.21;100.00;101660.75;5083576;28;20040;-78
2022/04/12 08:35:14;;;;;;;43.88;41.33;;;;;;;10.38;100.00;101654.31;5082499;28;20041;-78
2022/04/12 08:37:40;;;;;;;38.90;36.75;;;;;;;11.14;100.00;101651.44;5093894;28;20051;-78
2022/04/12 08:40:08;;;;;;;35.55;33.55;;;;;;;11.78;100.00;101658.63;5086400;28;20044;-79
2022/04/12 08:42:35;;;;;;;35.40;33.40;;;;;;;11.30;100.00;101653.84;5086783;28;20447;-79
2022/04/12 08:45:05;;;;;;;40.78;38.55;;;;;;;10.98;100.00;101650.63;5086192;28;20478;-78
2022/04/12 08:47:35;;;;;;;38.33;36.33;;;;;;;10.98;100.00;101655.09;5086100;28;20424;-79
2022/04/12 08:50:05;;;;;;;39.00;36.88;;;;;;;11.51;100.00;101657.56;5090436;28;20040;-79
2022/04/12 08:52:32;;;;;;;41.65;39.38;;;;;;;11.95;100.00;101652.03;5078533;28;20098;-78
2022/04/12 08:55:01;;;;;;;38.97;36.97;;;;;;;11.72;100.00;101651.41;5088628;28;20109;-80
2022/04/12 08:57:28;;;;;;;38.45;36.35;;;;;;;11.26;100.00;101646.44;5084664;28;20044;-78
2022/04/12 08:59:55;;;;;;;44.88;42.35;;;;;;;11.43;100.00;101635.34;5087049;28;20043;-79
2022/04/12 09:02:23;;;;;;;44.67;42.17;;;;;;;11.70;100.00;101635.63;5084906;28;20606;-78
2022/04/12 09:04:50;;;;;;;43.53;41.00;;;;;;;11.28;100.00;101631.94;5078969;28;20044;-79
2022/04/12 09:07:23;;;;;;;43.38;40.85;;;;;;;11.21;100.00;101631.88;5088281;28;20078;-80
2022/04/12 09:09:50;;;;;;;44.30;41.88;;;;;;;11.51;100.00;101615.00;5089005;28;20409;-79
2022/04/12 09:12:18;;;;;;;41.25;39.08;;;;;;;12.12;100.00;101631.28;5086765;28;20048;-79
2022/04/12 09:14:47;;;;;;;39.90;37.80;;;;;;;12.84;100.00;101616.75;5082856;28;20519;-79
2022/04/12 09:17:15;;;;;;;34.45;32.60;;;;;;;12.27;100.00;101617.88;5085201;28;20469;-78
2022/04/12 09:19:44;;;;;;;32.13;30.52;;;;;;;12.00;100.00;101620.34;5088182;28;20401;-78
2022/04/12 09:22:13;;;;;;;33.33;31.63;;;;;;;12.14;84.40;101608.78;5081326;28;20048;-78
2022/04/12 09:24:46;;;;;;;31.80;30.20;;;;;;;13.47;79.32;101613.88;5087717;28;20056;-79
2022/04/12 09:27:14;;;;;;;33.40;31.70;;;;;;;12.25;83.39;101609.25;5089546;28;20040;-78
2022/04/12 09:29:46;;;;;;;32.22;30.52;;;;;;;12.93;88.69;101610.22;5090627;28;20130;-78
2022/04/12 09:32:15;;;;;;;34.20;32.60;;;;;;;12.36;86.59;101601.53;5084188;28;20555;-79
2022/04/12 09:34:43;;;;;;;33.92;32.25;;;;;;;12.74;88.56;101600.31;5084678;28;20056;-80
2022/04/12 09:37:17;;;;;;;33.05;31.35;;;;;;;12.58;93.98;101599.59;5087069;28;20044;-79
2022/04/12 09:39:52;;;;;;;36.42;34.17;;;;;;;12.15;82.45;101590.97;5082319;28;20075;-80
2022/04/12 09:42:19;;;;;;;36.30;34.28;;;;;;;12.68;79.23;101591.25;5084362;28;20513;-78
2022/04/12 09:45:02;;;;;;;38.15;36.25;;;;;;;12.17;75.31;101585.44;5084266;28;20044;-80
2022/04/12 09:47:32;;;;;;;36.65;34.75;;;;;;;12.58;71.87;101596.13;5077658;28;20500;-78
2022/04/12 09:49:59;;;;;;;37.35;35.17;;;;;;;12.37;79.93;101595.22;5083066;28;20052;-79
2022/04/12 09:52:27;;;;;;;37.70;35.83;;;;;;;12.78;79.84;101593.56;5087359;28;20488;-79
2022/04/12 09:54:55;;;;;;;33.53;31.83;;;;;;;12.81;89.12;101585.97;5082221;28;20047;-80
2022/04/12 09:57:23;;;;;;;35.88;33.78;;;;;;;11.99;73.33;101585.94;5082578;28;20078;-79
2022/04/12 09:59:54;;;;;;;37.70;35.70;;;;;;;11.99;75.22;101581.44;5085556;28;20439;-80
2022/04/12 10:02:21;;;;;;;34.03;32.35;;;;;;;12.56;84.32;101579.53;5087208;28;20056;-78
2022/04/12 10:04:49;;;;;;;36.65;34.88;;;;;;;12.41;70.96;101574.31;5088488;28;20474;-79
2022/04/12 10:07:19;;;;;;;35.60;33.85;;;;;;;12.61;75.92;101571.75;5084105;28;20056;-78
2022/04/12 10:09:48;;;;;;;36.92;34.92;;;;;;;12.91;70.44;101576.78;5082315;28;20582;-80
2022/04/12 10:12:17;;;;;;;37.83;36.03;;;;;;;13.04;67.49;101574.13;5084021;28;20081;-79
2022/04/12 10:14:44;;;;;;;45.88;43.78;;;;;;;13.02;69.78;101581.53;5086189;28;20056;-80
2022/04/12 10:17:12;;;;;;;48.13;45.92;;;;;;;13.20;74.74;101563.13;5076113;28;20585;-78
2022/04/12 10:19:40;;;;;;;49.30;47.00;;;;;;;13.40;68.64;101565.81;5080743;28;20449;-78
2022/04/12 10:22:07;;;;;;;48.17;46.00;;;;;;;12.96;74.85;101572.50;5076727;28;20044;-79
2022/04/12 10:24:35;;;;;;;48.47;46.30;;;;;;;14.11;76.71;101565.19;5080186;28;20048;-78
2022/04/12 10:27:04;;;;;;;49.58;47.20;;;;;;;13.21;63.35;101564.75;5085923;28;20496;-77
2022/04/12 10:29:32;;;;;;;47.10;44.65;;;;;;;12.84;67.93;101569.59;5081748;28;20527;-78
2022/04/12 10:32:01;;;;;;;46.53;44.42;;;;;;;12.81;77.46;101579.81;5080812;28;20048;-78
2022/04/12 10:34:28;;;;;;;46.25;44.22;;;;;;;14.56;73.01;101564.47;5082287;28;20047;-79
2022/04/12 10:37:08;;;;;;;50.10;47.80;;;;;;;13.71;66.18;101559.91;5077356;28;20511;-78
2022/04/12 10:39:37;;;;;;;49.40;47.20;;;;;;;12.76;69.80;101569.75;5075722;28;20054;-79
2022/04/12 10:42:09;;;;;;;41.03;39.03;;;;;;;13.17;76.77;101568.84;5041871;28;1128617;-81
2022/04/12 10:44:42;;;;;;;47.20;45.00;;;;;;;13.72;65.91;101564.19;5077767;28;20048;-80
2022/04/12 10:47:27;;;;;;;42.28;40.38;;;;;;;13.28;66.81;101560.28;5077192;28;20492;-79
2022/04/12 10:49:56;;;;;;;43.53;41.53;;;;;;;13.17;65.04;101563.53;5083316;28;20455;-79
2022/04/12 10:52:34;;;;;;;46.50;44.30;;;;;;;13.04;61.28;101556.31;5089729;28;20640;-78
2022/04/12 10:55:01;;;;;;;46.22;44.13;;;;;;;13.34;57.78;101547.16;5085974;28;20426;-79
2022/04/12 10:57:28;;;;;;;45.20;43.20;;;;;;;13.17;68.99;101554.69;5090152;28;20123;-78
2022/04/12 11:00:00;;;;;;;44.22;42.05;;;;;;;13.05;66.82;101547.28;5090649;28;20055;-79
2022/04/12 11:02:32;;;;;;;44.40;42.08;;;;;;;13.50;70.18;101536.09;5084318;28;20048;-77
2022/04/12 11:05:00;;;;;;;41.40;39.25;;;;;;;14.13;74.20;101546.25;5084563;28;20105;-78
2022/04/12 11:07:32;;;;;;;35.78;34.08;;;;;;;14.60;63.60;101545.13;5083979;28;20052;-79
2022/04/12 11:10:29;;;;;;;35.67;33.95;;;;;;;13.43;74.07;101537.91;5089460;28;20109;-78
2022/04/12 11:13:05;;;;;;;35.35;33.55;;;;;;;13.17;75.52;101534.19;5089292;28;20120;-78